createdAt,value
2023-02-04T00:01:34.675Z,8.20
2023-02-04T00:04:03.699Z,8.20
2023-02-04T00:06:30.815Z,8.20
2023-02-04T00:08:57.729Z,8.20
2023-02-04T00:11:24.784Z,8.20
2023-02-04T00:13:51.617Z,8.10
2023-02-04T00:16:18.950Z,8.20
2023-02-04T00:18:45.826Z,8.10
2023-02-04T00:21:17.099Z,8.10
2023-02-04T00:23:44.565Z,8.10
2023-02-04T00:26:11.503Z,8.00
2023-02-04T00:28:39.182Z,8.00
2023-02-04T00:31:06.108Z,7.90
2023-02-04T00:33:35.658Z,7.90
2023-02-04T00:36:05.166Z,7.90
2023-02-04T00:38:33.743Z,7.90
2023-02-04T00:41:00.547Z,7.90
2023-02-04T00:43:27.826Z,7.80
2023-02-04T00:45:54.850Z,7.80
2023-02-04T00:48:26.703Z,7.70
2023-02-04T00:50:54.336Z,7.70
2023-02-04T00:53:24.103Z,7.60
2023-02-04T00:55:52.506Z,7.60
2023-02-04T00:58:19.408Z,7.60
2023-02-04T01:00:49.446Z,7.60
2023-02-04T01:03:19.694Z,7.50
2023-02-04T01:05:49.570Z,7.50
2023-02-04T01:08:19.162Z,7.50
2023-02-04T01:10:56.333Z,7.50
2023-02-04T01:13:24.770Z,7.50
2023-02-04T01:15:51.755Z,7.40
2023-02-04T01:18:18.560Z,7.40
2023-02-04T01:20:45.934Z,7.40
2023-02-04T01:23:16.326Z,7.30
2023-02-04T01:25:54.392Z,7.30
2023-02-04T01:28:23.142Z,7.20
2023-02-04T01:30:51.656Z,7.30
2023-02-04T01:33:18.670Z,7.20
2023-02-04T01:35:45.589Z,7.20
2023-02-04T01:38:12.965Z,7.10
2023-02-04T01:40:41.457Z,7.10
2023-02-04T01:43:08.898Z,7.00
2023-02-04T01:45:36.770Z,7.00
2023-02-04T01:48:07.739Z,7.00
2023-02-04T01:50:37.402Z,7.00
2023-02-04T01:53:04.301Z,6.90
2023-02-04T01:55:33.503Z,6.90
2023-02-04T01:58:03.176Z,6.90
2023-02-04T02:00:33.554Z,6.90
2023-02-04T02:03:01.245Z,6.90
2023-02-04T02:05:37.129Z,6.90
2023-02-04T02:08:17.216Z,6.90
2023-02-04T02:10:56.912Z,6.90
2023-02-04T02:13:26.236Z,6.90
2023-02-04T02:15:53.130Z,6.90
2023-02-04T02:18:20.328Z,6.90
2023-02-04T02:20:48.802Z,6.90
2023-02-04T02:23:24.955Z,7.00
2023-02-04T02:25:53.436Z,7.00
2023-02-04T02:28:22.823Z,7.00
2023-02-04T02:30:51.216Z,7.00
2023-02-04T02:33:20.541Z,7.00
2023-02-04T02:35:50.908Z,7.00
2023-02-04T02:38:21.402Z,7.00
2023-02-04T02:40:49.411Z,7.00
2023-02-04T02:43:21.497Z,6.90
2023-02-04T02:45:51.217Z,7.00
2023-02-04T02:48:18.919Z,7.00
2023-02-04T02:50:47.259Z,7.00
2023-02-04T02:53:16.984Z,7.00
2023-02-04T02:55:44.984Z,6.90
2023-02-04T02:58:21.275Z,7.00
2023-02-04T03:00:48.280Z,7.00
2023-02-04T03:03:22.694Z,7.00
2023-02-04T03:05:55.687Z,7.00
2023-02-04T03:08:23.299Z,7.00
2023-02-04T03:10:52.596Z,7.00
2023-02-04T03:17:02.750Z,7.00
2023-02-04T03:19:29.764Z,7.00
2023-02-04T03:21:58.032Z,7.00
2023-02-04T03:24:25.424Z,7.00
2023-02-04T03:27:16.109Z,7.00
2023-02-04T03:29:48.825Z,7.00
2023-02-04T03:32:17.596Z,7.00
2023-02-04T03:34:44.555Z,6.90
2023-02-04T03:37:11.643Z,6.90
2023-02-04T03:39:38.718Z,6.90
2023-02-04T03:42:05.615Z,6.90
2023-02-04T03:44:32.575Z,6.80
2023-02-04T03:47:02.247Z,6.80
2023-02-04T03:49:40.587Z,6.70
2023-02-04T03:52:07.513Z,6.70
2023-02-04T03:54:34.708Z,6.60
2023-02-04T03:57:01.678Z,6.50
2023-02-04T03:59:28.834Z,6.50
2023-02-04T04:01:55.722Z,6.40
2023-02-04T04:04:22.963Z,6.40
2023-02-04T04:06:51.253Z,6.40
2023-02-04T04:09:21.183Z,6.30
2023-02-04T04:11:48.647Z,6.30
2023-02-04T04:14:15.534Z,6.30
2023-02-04T04:16:42.846Z,6.30
2023-02-04T04:19:09.693Z,6.30
2023-02-04T04:21:39.575Z,6.30
2023-02-04T04:24:08.018Z,6.30
2023-02-04T04:26:34.943Z,6.30
2023-02-04T04:29:01.842Z,6.30
2023-02-04T04:31:29.060Z,6.30
2023-02-04T04:33:55.990Z,6.30
2023-02-04T04:36:22.921Z,6.30
2023-02-04T04:38:50.148Z,6.30
2023-02-04T04:41:20.487Z,6.30
2023-02-04T04:43:47.305Z,6.30
2023-02-04T04:46:14.536Z,6.30
2023-02-04T04:48:41.423Z,6.30
2023-02-04T04:51:11.246Z,6.30
2023-02-04T04:53:38.403Z,6.30
2023-02-04T04:56:05.714Z,6.30
2023-02-04T04:58:36.782Z,6.30
2023-02-04T05:01:04.078Z,6.20
2023-02-04T05:03:30.940Z,6.20
2023-02-04T05:05:58.200Z,6.20
2023-02-04T05:08:25.078Z,6.10
2023-02-04T05:10:52.298Z,6.00
2023-02-04T05:13:19.179Z,6.00
2023-02-04T05:15:47.547Z,5.90
2023-02-04T05:18:14.435Z,5.90
2023-02-04T05:20:41.400Z,5.90
2023-02-04T05:23:08.563Z,5.90
2023-02-04T05:25:35.531Z,5.80
2023-02-04T05:28:02.929Z,5.80
2023-02-04T05:30:30.308Z,5.70
2023-02-04T05:32:58.773Z,5.70
2023-02-04T05:35:26.040Z,5.70
2023-02-04T05:37:53.166Z,5.60
2023-02-04T05:40:20.341Z,5.60
2023-02-04T05:42:47.331Z,5.60
2023-02-04T05:45:16.361Z,5.60
2023-02-04T05:47:43.299Z,5.60
2023-02-04T05:50:11.670Z,5.60
2023-02-04T05:52:40.220Z,5.60
2023-02-04T05:55:07.949Z,5.70
2023-02-04T05:57:35.383Z,5.70
2023-02-04T06:00:02.363Z,5.80
2023-02-04T06:02:32.124Z,5.80
2023-02-04T06:05:00.192Z,5.90
2023-02-04T06:07:28.597Z,5.90
2023-02-04T06:09:55.406Z,5.90
2023-02-04T06:12:25.332Z,6.00
2023-02-04T06:14:52.219Z,6.00
2023-02-04T06:17:19.154Z,6.10
2023-02-04T06:19:46.061Z,6.10
2023-02-04T06:22:15.882Z,6.10
2023-02-04T06:24:47.642Z,6.10
2023-02-04T06:27:14.578Z,6.10
2023-02-04T06:29:43.771Z,6.20
2023-02-04T06:32:10.676Z,6.20
2023-02-04T06:34:37.802Z,6.20
2023-02-04T06:37:05.005Z,6.20
2023-02-04T06:39:32.045Z,6.20
2023-02-04T06:42:00.281Z,6.20
2023-02-04T06:44:27.192Z,6.30
2023-02-04T06:46:54.408Z,6.30
2023-02-04T06:49:21.245Z,6.30
2023-02-04T06:51:49.926Z,6.30
2023-02-04T06:54:16.936Z,6.30
2023-02-04T06:56:47.040Z,6.40
2023-02-04T06:59:15.432Z,6.40
2023-02-04T07:01:42.478Z,6.40
2023-02-04T07:04:10.010Z,6.40
2023-02-04T07:06:39.468Z,6.40
2023-02-04T07:09:06.482Z,6.40
2023-02-04T07:11:33.346Z,6.40
2023-02-04T07:14:00.287Z,6.40
2023-02-04T07:16:28.807Z,6.50
2023-02-04T07:18:55.918Z,6.50
2023-02-04T07:21:23.314Z,6.50
2023-02-04T07:23:50.189Z,6.50
2023-02-04T07:26:17.063Z,6.50
2023-02-04T07:28:44.637Z,6.60
2023-02-04T07:31:11.600Z,6.60
2023-02-04T07:33:40.267Z,6.60
2023-02-04T07:36:07.585Z,6.60
2023-02-04T07:38:34.774Z,6.60
2023-02-04T07:41:01.668Z,6.70
2023-02-04T07:43:28.920Z,6.70
2023-02-04T07:45:55.938Z,6.70
2023-02-04T07:48:23.462Z,6.80
2023-02-04T07:50:54.543Z,6.80
2023-02-04T07:53:21.704Z,6.80
2023-02-04T07:55:48.503Z,6.80
2023-02-04T07:58:17.753Z,6.90
2023-02-04T08:00:44.620Z,6.90
2023-02-04T08:03:11.536Z,6.90
2023-02-04T08:05:38.451Z,7.00
2023-02-04T08:08:10.063Z,7.00
2023-02-04T08:10:37.143Z,7.00
2023-02-04T08:13:06.331Z,7.10
2023-02-04T08:15:33.344Z,7.10
2023-02-04T08:18:00.433Z,7.10
2023-02-04T08:20:27.629Z,7.20
2023-02-04T08:22:54.651Z,7.20
2023-02-04T08:25:22.993Z,7.30
2023-02-04T08:27:50.052Z,7.40
2023-02-04T08:30:20.665Z,7.40
2023-02-04T08:32:47.588Z,7.40
2023-02-04T08:35:14.844Z,7.50
2023-02-04T08:37:41.705Z,7.60
2023-02-04T08:40:09.554Z,7.70
2023-02-04T08:42:37.820Z,7.70
2023-02-04T08:45:05.092Z,7.80
2023-02-04T08:47:32.063Z,7.90
2023-02-04T08:49:58.913Z,8.00
2023-02-04T08:52:25.924Z,8.00
2023-02-04T08:54:52.764Z,8.20
2023-02-04T08:57:22.646Z,8.20
2023-02-04T08:59:51.011Z,8.30
2023-02-04T09:02:20.128Z,8.40
2023-02-04T09:04:47.080Z,8.40
2023-02-04T09:07:14.097Z,8.50
2023-02-04T09:09:40.878Z,8.60
2023-02-04T09:12:10.579Z,8.70
2023-02-04T09:14:37.443Z,8.70
2023-02-04T09:17:06.145Z,8.80
2023-02-04T09:19:33.675Z,8.80
2023-02-04T09:22:00.552Z,8.90
2023-02-04T09:24:27.451Z,8.90
2023-02-04T09:26:54.346Z,8.90
2023-02-04T09:29:21.853Z,9.20
2023-02-04T09:31:49.299Z,9.30
2023-02-04T09:34:17.990Z,9.40
2023-02-04T09:36:46.450Z,9.50
2023-02-04T09:39:15.995Z,9.60
2023-02-04T09:41:43.536Z,9.70
2023-02-04T09:44:14.794Z,9.70
2023-02-04T09:46:44.864Z,9.80
2023-02-04T09:49:11.760Z,9.90
2023-02-04T09:51:41.617Z,9.90
2023-02-04T09:54:12.640Z,10.00
2023-02-04T09:56:42.312Z,10.00
2023-02-04T09:59:13.285Z,10.10
2023-02-04T10:01:40.697Z,10.10
2023-02-04T10:04:12.813Z,10.10
2023-02-04T10:06:43.424Z,10.20
2023-02-04T10:09:12.202Z,10.20
2023-02-04T10:11:41.528Z,10.30
2023-02-04T10:14:13.346Z,10.30
2023-02-04T10:16:43.712Z,10.40
2023-02-04T10:19:15.553Z,10.40
2023-02-04T10:21:48.330Z,10.50
2023-02-04T10:24:17.521Z,10.60
2023-02-04T10:26:50.416Z,10.70
2023-02-04T10:29:19.641Z,10.80
2023-02-04T10:31:49.059Z,10.80
2023-02-04T10:34:18.903Z,10.80
2023-02-04T10:36:49.651Z,10.80
2023-02-04T10:39:18.735Z,10.70
2023-02-04T10:41:51.142Z,10.80
2023-02-04T10:44:20.970Z,10.70
2023-02-04T10:46:48.523Z,10.70
2023-02-04T10:49:21.199Z,10.70
2023-02-04T10:51:51.546Z,10.70
2023-02-04T10:54:32.847Z,10.70
2023-02-04T10:57:06.101Z,10.80
2023-02-04T10:59:33.404Z,11.00
2023-02-04T11:02:02.972Z,11.20
2023-02-04T11:04:32.068Z,11.30
2023-02-04T11:07:00.433Z,11.30
2023-02-04T11:09:27.504Z,11.30
2023-02-04T11:11:57.700Z,11.30
2023-02-04T11:14:28.266Z,11.20
2023-02-04T11:17:02.527Z,11.20
2023-02-04T11:19:36.100Z,11.10
2023-02-04T11:22:22.922Z,11.10
2023-02-04T11:24:53.291Z,11.10
2023-02-04T11:27:27.512Z,11.20
2023-02-04T11:30:05.950Z,11.20
2023-02-04T11:32:38.524Z,11.20
2023-02-04T11:35:28.808Z,11.30
2023-02-04T11:37:59.791Z,11.30
2023-02-04T11:40:45.107Z,11.30
2023-02-04T11:43:15.493Z,11.40
2023-02-04T11:45:42.949Z,11.40
2023-02-04T11:48:14.761Z,11.40
2023-02-04T11:50:41.916Z,11.50
2023-02-04T11:53:11.872Z,11.70
2023-02-04T11:55:47.417Z,11.80
2023-02-04T11:58:15.847Z,11.90
2023-02-04T12:00:43.197Z,12.10
2023-02-04T12:03:28.228Z,12.20
2023-02-04T12:05:55.879Z,12.40
2023-02-04T12:08:32.453Z,12.60
2023-02-04T12:11:06.862Z,12.70
2023-02-04T12:13:45.470Z,12.70
2023-02-04T12:16:12.532Z,12.80
2023-02-04T12:18:39.695Z,12.80
2023-02-04T12:21:06.900Z,12.70
2023-02-04T12:23:38.173Z,12.60
2023-02-04T12:26:08.666Z,12.70
2023-02-04T12:28:35.759Z,12.90
2023-02-04T12:31:02.746Z,12.90
2023-02-04T12:33:35.487Z,13.00
2023-02-04T12:36:02.641Z,13.00
2023-02-04T12:38:29.900Z,13.00
2023-02-04T12:40:58.029Z,12.90
2023-02-04T12:43:28.176Z,12.90
2023-02-04T12:45:55.374Z,12.80
2023-02-04T12:48:22.320Z,12.70
2023-02-04T12:50:49.331Z,12.60
2023-02-04T12:53:16.455Z,12.50
2023-02-04T12:55:46.465Z,12.40
2023-02-04T12:58:14.697Z,12.40
2023-02-04T13:00:42.747Z,12.40
2023-02-04T13:03:09.675Z,12.40
2023-02-04T13:05:46.187Z,12.40
2023-02-04T13:08:16.197Z,12.40
2023-02-04T13:10:50.459Z,12.40
2023-02-04T13:13:19.642Z,12.40
2023-02-04T13:15:47.263Z,12.40
2023-02-04T13:18:16.095Z,12.40
2023-02-04T13:20:44.227Z,12.50
2023-02-04T13:23:11.076Z,12.50
2023-02-04T13:25:38.802Z,12.50
2023-02-04T13:28:05.811Z,12.40
2023-02-04T13:30:34.322Z,12.40
2023-02-04T13:33:01.322Z,12.30
2023-02-04T13:35:28.189Z,12.30
2023-02-04T13:37:56.513Z,12.30
2023-02-04T13:40:23.623Z,12.20
2023-02-04T13:43:02.499Z,12.20
2023-02-04T13:45:29.716Z,12.20
2023-02-04T13:47:58.136Z,12.20
2023-02-04T13:50:25.001Z,12.10
2023-02-04T13:52:51.885Z,11.90
2023-02-04T13:55:18.746Z,11.90
2023-02-04T13:57:45.717Z,11.90
2023-02-04T14:00:13.907Z,12.00
2023-02-04T14:02:40.944Z,12.10
2023-02-04T14:05:12.459Z,12.20
2023-02-04T14:07:42.461Z,12.20
2023-02-04T14:10:12.327Z,12.20
2023-02-04T14:12:40.031Z,12.10
2023-02-04T14:15:10.579Z,12.00
2023-02-04T14:17:37.434Z,12.00
2023-02-04T14:20:16.483Z,12.10
2023-02-04T14:22:43.603Z,12.20
2023-02-04T14:25:11.140Z,12.30
2023-02-04T14:27:42.093Z,12.40
2023-02-04T14:30:16.994Z,12.40
2023-02-04T14:32:43.879Z,12.40
2023-02-04T14:35:12.481Z,12.40
2023-02-04T14:37:39.344Z,12.40
2023-02-04T14:40:08.428Z,12.30
2023-02-04T14:42:35.889Z,12.30
2023-02-04T14:45:05.618Z,12.30
2023-02-04T14:47:33.121Z,12.30
2023-02-04T14:50:00.350Z,12.30
2023-02-04T14:52:28.680Z,12.20
2023-02-04T14:54:55.708Z,12.20
2023-02-04T14:57:25.287Z,12.10
2023-02-04T14:59:52.344Z,12.00
2023-02-04T15:02:19.638Z,12.00
2023-02-04T15:04:47.201Z,11.90
2023-02-04T15:07:15.755Z,11.90
2023-02-04T15:09:48.624Z,11.80
2023-02-04T15:12:15.862Z,11.80
2023-02-04T15:14:43.343Z,11.70
2023-02-04T15:17:10.539Z,11.60
2023-02-04T15:19:37.980Z,11.60
2023-02-04T15:22:04.868Z,11.60
2023-02-04T15:24:32.161Z,11.60
2023-02-04T15:27:00.402Z,11.50
2023-02-04T15:29:27.384Z,11.50
2023-02-04T15:31:56.889Z,11.50
2023-02-04T15:34:27.183Z,11.40
2023-02-04T15:36:56.621Z,11.40
2023-02-04T15:39:23.512Z,11.40
2023-02-04T15:41:50.749Z,11.40
2023-02-04T15:44:21.471Z,11.30
2023-02-04T15:46:50.348Z,11.30
2023-02-04T15:49:17.350Z,11.30
2023-02-04T15:51:44.765Z,11.20
2023-02-04T15:54:11.866Z,11.20
2023-02-04T15:56:39.430Z,11.20
2023-02-04T15:59:06.214Z,11.10
2023-02-04T16:01:38.539Z,11.10
2023-02-04T16:04:05.554Z,11.00
2023-02-04T16:06:33.427Z,11.00
2023-02-04T16:09:00.444Z,10.90
2023-02-04T16:11:27.936Z,10.90
2023-02-04T16:13:54.814Z,10.90
2023-02-04T16:16:24.732Z,10.80
2023-02-04T16:18:53.008Z,10.90
2023-02-04T16:21:21.929Z,10.80
2023-02-04T16:23:49.237Z,10.80
2023-02-04T16:26:16.818Z,10.80
2023-02-04T16:28:47.264Z,10.70
2023-02-04T16:31:14.601Z,10.70
2023-02-04T16:33:44.110Z,10.60
2023-02-04T16:36:13.657Z,10.60
2023-02-04T16:38:43.500Z,10.60
2023-02-04T16:41:11.419Z,10.50
2023-02-04T16:43:38.301Z,10.40
2023-02-04T16:46:06.048Z,10.40
2023-02-04T16:48:34.206Z,10.40
2023-02-04T16:51:01.113Z,10.40
2023-02-04T16:53:29.792Z,10.40
2023-02-04T16:55:56.841Z,10.30
2023-02-04T16:58:26.647Z,10.30
2023-02-04T17:00:54.192Z,10.30
2023-02-04T17:03:21.042Z,10.20
2023-02-04T17:05:50.372Z,10.20
2023-02-04T17:08:20.132Z,10.20
2023-02-04T17:11:07.276Z,10.10
2023-02-04T17:13:34.406Z,10.20
2023-02-04T17:16:01.661Z,10.10
2023-02-04T17:18:29.563Z,10.10
2023-02-04T17:20:57.114Z,10.10
2023-02-04T17:23:24.050Z,10.10
2023-02-04T17:25:52.339Z,10.10
2023-02-04T17:28:22.112Z,10.10
2023-02-04T17:30:49.730Z,10.00
2023-02-04T17:33:16.711Z,10.00
2023-02-04T17:35:46.911Z,10.00
2023-02-04T17:38:14.189Z,10.00
2023-02-04T17:40:42.565Z,10.00
2023-02-04T17:43:10.934Z,9.90
2023-02-04T17:45:38.523Z,9.90
2023-02-04T17:48:05.615Z,9.90
2023-02-04T17:53:04.242Z,9.90
2023-02-04T17:55:33.831Z,9.90
2023-02-04T17:58:10.741Z,9.90
2023-02-04T18:00:40.750Z,9.90
2023-02-04T18:03:13.073Z,9.90
2023-02-04T18:05:44.594Z,9.90
2023-02-04T18:08:21.130Z,9.90
2023-02-04T18:10:49.991Z,9.90
2023-02-04T18:13:23.845Z,9.90
2023-02-04T18:15:54.710Z,9.90
2023-02-04T18:18:23.674Z,9.90
2023-02-04T18:20:59.653Z,9.90
2023-02-04T18:23:29.281Z,9.80
2023-02-04T18:26:01.799Z,9.80
2023-02-04T18:28:28.769Z,9.80
2023-02-04T18:31:01.830Z,9.80
2023-02-04T18:33:33.814Z,9.80
2023-02-04T18:36:01.871Z,9.70
2023-02-04T18:38:32.445Z,9.70
2023-02-04T18:41:11.466Z,9.70
2023-02-04T18:43:48.173Z,9.70
2023-02-04T18:46:25.993Z,9.70
2023-02-04T18:49:00.841Z,9.70
2023-02-04T18:51:31.647Z,9.70
2023-02-04T18:54:25.573Z,9.70
2023-02-04T18:56:53.704Z,9.70
2023-02-04T18:59:22.177Z,9.70
2023-02-04T19:01:51.243Z,9.70
2023-02-04T19:04:23.903Z,9.60
2023-02-04T19:06:52.427Z,9.60
2023-02-04T19:09:26.951Z,9.60
2023-02-04T19:12:00.658Z,9.60
2023-02-04T19:14:36.240Z,9.60
2023-02-04T19:17:24.643Z,9.60
2023-02-04T19:19:57.012Z,9.50
2023-02-04T19:22:31.903Z,9.50
2023-02-04T19:25:23.362Z,9.50
2023-02-04T19:27:54.284Z,9.50
2023-02-04T19:30:45.468Z,9.50
2023-02-04T19:33:19.822Z,9.50
2023-02-04T19:35:49.005Z,9.50
2023-02-04T19:38:43.655Z,9.40
2023-02-04T19:41:29.077Z,9.40
2023-02-04T19:44:34.294Z,9.40
2023-02-04T19:47:24.029Z,9.40
2023-02-04T19:50:00.686Z,9.40
2023-02-04T19:52:34.851Z,9.40
2023-02-04T19:55:26.512Z,9.40
2023-02-04T19:57:56.441Z,9.40
2023-02-04T20:00:44.723Z,9.30
2023-02-04T20:03:31.396Z,9.30
2023-02-04T20:06:04.241Z,9.30
2023-02-04T20:08:46.293Z,9.20
2023-02-04T20:11:36.680Z,9.20
2023-02-04T20:14:37.393Z,9.20
2023-02-04T20:17:14.979Z,9.20
2023-02-04T20:19:42.499Z,9.20
2023-02-04T20:22:46.267Z,9.20
2023-02-04T20:25:41.202Z,9.20
2023-02-04T20:28:27.325Z,9.20
2023-02-04T20:31:00.847Z,9.20
2023-02-04T20:33:36.465Z,9.10
2023-02-04T20:36:40.813Z,9.20
2023-02-04T20:39:33.917Z,9.20
2023-02-04T20:42:42.026Z,9.20
2023-02-04T20:45:25.464Z,9.10
2023-02-04T20:47:56.128Z,9.10
2023-02-04T20:50:41.456Z,9.10
2023-02-04T20:53:36.416Z,9.10
2023-02-04T20:56:18.611Z,9.10
2023-02-04T20:58:49.553Z,9.10
2023-02-04T21:01:22.231Z,9.10
2023-02-04T21:03:51.119Z,9.00
2023-02-04T21:06:23.427Z,9.00
2023-02-04T21:08:52.428Z,9.00
2023-02-04T21:11:24.077Z,9.00
2023-02-04T21:13:52.686Z,9.00
2023-02-04T21:16:19.958Z,9.00
2023-02-04T21:18:53.427Z,9.00
2023-02-04T21:21:23.381Z,9.10
2023-02-04T21:23:50.430Z,9.10
2023-02-04T21:26:17.971Z,9.00
2023-02-04T21:28:46.422Z,9.00
2023-02-04T21:31:13.536Z,9.10
2023-02-04T21:33:40.452Z,9.00
2023-02-04T21:36:08.398Z,9.00
2023-02-04T21:38:35.641Z,9.00
2023-02-04T21:41:02.613Z,9.00
2023-02-04T21:43:32.048Z,9.10
2023-02-04T21:46:00.887Z,9.10
2023-02-04T21:48:27.845Z,9.00
2023-02-04T21:50:55.328Z,8.90
2023-02-04T21:53:22.371Z,8.90
2023-02-04T21:55:49.471Z,9.00
2023-02-04T21:58:16.636Z,9.00
2023-02-04T22:00:44.157Z,8.90
2023-02-04T22:03:15.852Z,9.00
2023-02-04T22:05:43.020Z,9.00
2023-02-04T22:08:10.181Z,8.90
2023-02-04T22:10:40.666Z,9.00
2023-02-04T22:13:10.318Z,8.90
2023-02-04T22:15:37.406Z,9.00
2023-02-04T22:18:04.490Z,9.00
2023-02-04T22:20:35.082Z,9.00
2023-02-04T22:25:43.406Z,9.00
2023-02-04T22:28:10.365Z,9.00
2023-02-04T22:30:37.957Z,8.90
2023-02-04T22:33:05.119Z,9.00
2023-02-04T22:35:36.848Z,9.00
2023-02-04T22:38:04.087Z,9.00
2023-02-04T22:40:31.117Z,9.00
2023-02-04T22:42:58.435Z,9.00
2023-02-04T22:45:25.502Z,9.00
2023-02-04T22:47:52.665Z,9.00
2023-02-04T22:50:19.765Z,9.00
2023-02-04T22:52:48.108Z,9.00
2023-02-04T22:55:15.132Z,9.00
2023-02-04T22:57:41.993Z,9.00
2023-02-04T23:00:11.561Z,9.00
2023-02-04T23:02:39.235Z,9.00
2023-02-04T23:05:06.555Z,9.00
2023-02-04T23:07:33.836Z,9.00
2023-02-04T23:10:02.088Z,9.00
2023-02-04T23:12:31.857Z,9.00
2023-02-04T23:15:01.900Z,9.00
2023-02-04T23:17:29.070Z,9.00
2023-02-04T23:19:55.992Z,9.00
2023-02-04T23:22:25.333Z,9.00
2023-02-04T23:24:52.397Z,9.00
2023-02-04T23:27:20.849Z,8.90
2023-02-04T23:29:48.189Z,8.90
2023-02-04T23:32:24.668Z,8.90
2023-02-04T23:34:51.507Z,8.90
2023-02-04T23:37:21.136Z,8.90
2023-02-04T23:39:48.595Z,8.90
2023-02-04T23:42:15.781Z,8.90
2023-02-04T23:44:44.358Z,8.90
2023-02-04T23:47:11.556Z,8.90
2023-02-04T23:49:38.582Z,8.90
2023-02-04T23:52:07.145Z,8.90
2023-02-04T23:54:34.189Z,8.90
2023-02-04T23:57:04.234Z,8.90
2023-02-04T23:59:38.687Z,8.90
